Time;durP1;ratioP1;P1;durP2;ratioP2;P2;SDS_P1;SDS_P2;PMS_P1;PMS_P2;Temp;Humidity;BMP_temperature;BMP_pressure;BME280_temperature;BME280_humidity;BME280_pressure;Samples;Min_cycle;Max_cycle;Signal;HPM_P1;HPM_P2
2023/10/03 00:00:31;;;;;;;3.83;2.45;;;;;;;;;;6215464;23;20099;-74
2023/10/03 00:02:58;;;;;;;4.93;2.33;;;;;;;;;;6218308;23;20574;-74
2023/10/03 00:05:28;;;;;;;3.15;2.40;;;;;;;;;;6217324;23;20019;-73
2023/10/03 00:07:55;;;;;;;2.78;2.45;;;;;;;;;;6244210;23;20449;-73
2023/10/03 00:10:21;;;;;;;4.18;2.53;;;;;;;;;;6244159;23;20361;-73
2023/10/03 00:12:48;;;;;;;7.30;3.10;;;;;;;;;;6243949;23;20012;-73
2023/10/03 00:15:15;;;;;;;3.38;2.30;;;;;;;;;;6192509;23;20461;-75
2023/10/03 00:17:42;;;;;;;4.28;2.50;;;;;;;;;;6243839;23;20008;-74
2023/10/03 00:20:11;;;;;;;6.20;2.47;;;;;;;;;;6243738;23;20027;-72
2023/10/03 00:22:38;;;;;;;2.70;2.22;;;;;;;;;;6244183;23;20075;-75
2023/10/03 00:25:09;;;;;;;2.75;2.33;;;;;;;;;;6217363;23;20065;-74
2023/10/03 00:27:36;;;;;;;3.45;2.40;;;;;;;;;;6244024;23;20138;-74
2023/10/03 00:30:02;;;;;;;4.45;2.30;;;;;;;;;;6193060;23;20016;-75
2023/10/03 00:32:33;;;;;;;4.30;2.10;;;;;;;;;;6194035;23;20020;-75
2023/10/03 00:34:59;;;;;;;3.38;2.53;;;;;;;;;;6202234;23;20012;-73
2023/10/03 00:37:25;;;;;;;2.60;2.38;;;;;;;;;;6209973;23;20016;-74
2023/10/03 00:39:53;;;;;;;5.95;2.40;;;;;;;;;;6258156;23;20067;-73
2023/10/03 00:42:20;;;;;;;2.60;2.40;;;;;;;;;;6245391;23;20015;-75
2023/10/03 00:44:46;;;;;;;2.65;2.45;;;;;;;;;;6217393;23;20061;-74
2023/10/03 00:47:12;;;;;;;5.13;2.53;;;;;;;;;;6217658;23;20012;-74
2023/10/03 00:49:38;;;;;;;2.60;2.40;;;;;;;;;;6217059;23;20023;-73
2023/10/03 00:52:05;;;;;;;3.13;2.40;;;;;;;;;;6243899;23;20558;-74
2023/10/03 00:54:32;;;;;;;2.85;2.47;;;;;;;;;;6242602;23;20038;-73
2023/10/03 00:56:58;;;;;;;4.40;2.28;;;;;;;;;;6243868;23;20559;-74
2023/10/03 00:59:25;;;;;;;7.18;2.22;;;;;;;;;;6244045;23;20102;-73
2023/10/03 01:01:57;;;;;;;2.60;2.40;;;;;;;;;;6243250;23;20012;-74
2023/10/03 01:04:29;;;;;;;2.65;1.90;;;;;;;;;;6243593;23;20016;-74
2023/10/03 01:06:55;;;;;;;1.95;1.85;;;;;;;;;;6216818;23;20016;-75
2023/10/03 01:09:25;;;;;;;2.72;2.30;;;;;;;;;;6218226;23;20500;-74
2023/10/03 01:11:53;;;;;;;2.33;2.13;;;;;;;;;;6243766;23;20445;-74
2023/10/03 01:14:19;;;;;;;2.47;2.28;;;;;;;;;;6243231;23;20543;-73
2023/10/03 01:16:45;;;;;;;2.20;2.00;;;;;;;;;;6191234;23;20035;-75
2023/10/03 01:19:19;;;;;;;2.45;2.15;;;;;;;;;;6216774;23;20453;-76
2023/10/03 01:21:46;;;;;;;3.15;2.70;;;;;;;;;;6233021;23;20020;-74
2023/10/03 01:24:15;;;;;;;2.42;2.22;;;;;;;;;;6217164;23;20012;-75
2023/10/03 01:26:41;;;;;;;2.83;2.10;;;;;;;;;;6241431;23;20036;-74
2023/10/03 01:29:07;;;;;;;2.10;2.00;;;;;;;;;;6243304;22;20024;-73
2023/10/03 01:31:33;;;;;;;4.40;2.20;;;;;;;;;;6243135;22;20016;-74
2023/10/03 01:34:01;;;;;;;2.58;2.10;;;;;;;;;;6241823;23;20016;-74
2023/10/03 01:36:27;;;;;;;2.65;2.15;;;;;;;;;;6243863;22;20088;-73
2023/10/03 01:38:53;;;;;;;2.67;2.35;;;;;;;;;;6241711;23;20449;-75
2023/10/03 01:41:19;;;;;;;4.82;2.45;;;;;;;;;;6242479;22;20461;-73
2023/10/03 01:43:45;;;;;;;2.10;2.00;;;;;;;;;;6243291;23;20016;-73
2023/10/03 01:46:12;;;;;;;2.20;2.00;;;;;;;;;;6241906;23;20062;-74
2023/10/03 01:48:38;;;;;;;2.47;2.28;;;;;;;;;;6241500;23;20031;-74
2023/10/03 01:51:05;;;;;;;1.95;1.85;;;;;;;;;;6241465;23;20042;-74
2023/10/03 01:53:31;;;;;;;6.50;2.30;;;;;;;;;;6241318;23;20023;-75
2023/10/03 01:55:57;;;;;;;2.30;2.10;;;;;;;;;;6166820;23;20042;-75
2023/10/03 01:58:24;;;;;;;4.03;2.42;;;;;;;;;;6242211;23;20077;-74
2023/10/03 02:00:50;;;;;;;2.08;1.98;;;;;;;;;;6241400;23;20307;-75
2023/10/03 02:03:18;;;;;;;2.20;2.00;;;;;;;;;;6191334;23;20062;-74
2023/10/03 02:05:45;;;;;;;1.90;1.80;;;;;;;;;;6241174;23;20094;-74
2023/10/03 02:08:17;;;;;;;5.15;2.38;;;;;;;;;;6242059;23;20020;-75
2023/10/03 02:10:46;;;;;;;5.03;2.40;;;;;;;;;;6242339;23;20053;-74
2023/10/03 02:13:14;;;;;;;2.80;2.60;;;;;;;;;;6241805;23;20039;-74
2023/10/03 02:15:46;;;;;;;3.40;2.40;;;;;;;;;;6242136;23;20016;-76
2023/10/03 02:18:13;;;;;;;2.33;2.13;;;;;;;;;;6242721;23;20011;-75
2023/10/03 02:20:47;;;;;;;2.60;2.38;;;;;;;;;;6215611;23;20020;-75
2023/10/03 02:23:17;;;;;;;2.40;2.28;;;;;;;;;;6243380;22;20016;-75
2023/10/03 02:25:44;;;;;;;2.60;2.40;;;;;;;;;;6242274;22;20015;-73
2023/10/03 02:28:10;;;;;;;5.32;2.63;;;;;;;;;;6242825;22;20048;-74
2023/10/03 02:30:36;;;;;;;3.22;2.35;;;;;;;;;;6241109;23;20016;-75
2023/10/03 02:33:37;;;;;;;3.05;2.72;;;;;;;;;;6242887;23;20356;-76
2023/10/03 02:35:55;;;;;;;3.05;2.10;;;;;;;;;;6236532;23;20022;-75
2023/10/03 02:38:24;;;;;;;4.35;2.40;;;;;;;;;;6241300;23;20016;-74
2023/10/03 02:40:54;;;;;;;3.20;2.50;;;;;;;;;;6242196;22;20015;-75
2023/10/03 02:43:21;;;;;;;4.72;2.92;;;;;;;;;;6241458;23;20500;-74
2023/10/03 02:45:48;;;;;;;2.83;2.63;;;;;;;;;;6215659;23;20027;-72
2023/10/03 02:48:15;;;;;;;3.03;2.70;;;;;;;;;;6241253;23;20508;-75
2023/10/03 02:50:44;;;;;;;5.28;2.83;;;;;;;;;;6240704;23;20105;-75
2023/10/03 02:53:23;;;;;;;2.80;2.47;;;;;;;;;;6240932;23;20363;-76
2023/10/03 02:55:50;;;;;;;2.97;2.15;;;;;;;;;;6240933;23;20022;-74
2023/10/03 02:58:19;;;;;;;6.68;3.60;;;;;;;;;;6242789;23;20012;-75
2023/10/03 03:00:53;;;;;;;7.63;2.40;;;;;;;;;;6216779;23;20011;-76
2023/10/03 03:03:20;;;;;;;2.83;2.50;;;;;;;;;;6241291;23;20034;-75
2023/10/03 03:05:49;;;;;;;5.97;2.80;;;;;;;;;;6242183;22;20015;-75
2023/10/03 03:11:00;;;;;;;6.07;5.00;;;;;;;;;;6215347;23;20456;-75
2023/10/03 03:13:27;;;;;;;4.32;2.85;;;;;;;;;;6215761;23;20051;-75
2023/10/03 03:15:59;;;;;;;3.88;2.85;;;;;;;;;;6215653;23;20008;-75
2023/10/03 03:18:40;;;;;;;3.38;3.08;;;;;;;;;;6217161;23;20015;-75
2023/10/03 03:21:08;;;;;;;6.00;3.50;;;;;;;;;;6240784;23;20542;-74
2023/10/03 03:23:39;;;;;;;3.72;3.38;;;;;;;;;;6217215;23;20087;-74
2023/10/03 03:28:41;;;;;;;9.05;3.10;;;;;;;;;;6242244;23;20020;-74
2023/10/03 03:31:32;;;;;;;8.93;3.60;;;;;;;;;;6239417;23;20022;-78
2023/10/03 03:33:57;;;;;;;5.27;3.50;;;;;;;;;;6241131;23;20091;-77
2023/10/03 03:36:24;;;;;;;2.97;2.78;;;;;;;;;;6240665;23;20309;-78
2023/10/03 03:38:51;;;;;;;4.97;3.13;;;;;;;;;;6241633;22;20032;-78
2023/10/03 03:41:18;;;;;;;3.03;2.83;;;;;;;;;;6239872;23;20008;-77
2023/10/03 03:43:45;;;;;;;5.82;3.10;;;;;;;;;;6242107;22;20011;-77
2023/10/03 03:46:12;;;;;;;4.75;2.90;;;;;;;;;;6241462;23;20463;-78
2023/10/03 03:48:39;;;;;;;3.90;3.50;;;;;;;;;;6240740;22;20118;-77
2023/10/03 03:51:11;;;;;;;5.63;3.45;;;;;;;;;;6215554;23;20008;-78
2023/10/03 03:53:38;;;;;;;1.80;1.70;;;;;;;;;;6242454;22;20076;-77
2023/10/03 03:56:07;;;;;;;3.55;3.00;;;;;;;;;;6190884;23;20068;-80
2023/10/03 03:58:37;;;;;;;4.90;3.42;;;;;;;;;;6242021;23;20115;-80
2023/10/03 04:01:11;;;;;;;4.20;3.63;;;;;;;;;;6241732;23;20012;-79
2023/10/03 04:03:38;;;;;;;4.45;4.13;;;;;;;;;;6242054;23;20091;-78
2023/10/03 04:06:05;;;;;;;4.78;3.53;;;;;;;;;;6241562;23;20039;-79
2023/10/03 04:08:31;;;;;;;4.18;3.95;;;;;;;;;;6241843;22;20534;-78
2023/10/03 04:10:58;;;;;;;4.88;4.28;;;;;;;;;;6241604;22;20015;-79
2023/10/03 04:13:27;;;;;;;5.05;4.47;;;;;;;;;;6239942;23;20058;-77
2023/10/03 04:15:53;;;;;;;6.05;4.80;;;;;;;;;;6216580;23;20012;-79
2023/10/03 04:18:19;;;;;;;4.80;4.40;;;;;;;;;;6242781;23;20008;-78
2023/10/03 04:20:47;;;;;;;5.25;4.45;;;;;;;;;;6241671;23;20465;-78
2023/10/03 04:23:13;;;;;;;5.72;4.60;;;;;;;;;;6246458;23;20428;-78
2023/10/03 04:25:40;;;;;;;10.73;3.58;;;;;;;;;;6255089;22;20020;-78
2023/10/03 04:28:06;;;;;;;3.80;3.40;;;;;;;;;;6256626;23;20154;-78
2023/10/03 04:30:32;;;;;;;3.42;3.20;;;;;;;;;;6252143;22;20047;-79
2023/10/03 04:32:58;;;;;;;3.60;3.30;;;;;;;;;;6248739;23;20008;-78
2023/10/03 04:35:24;;;;;;;3.88;3.58;;;;;;;;;;6240882;23;20070;-78
2023/10/03 04:37:53;;;;;;;6.45;3.83;;;;;;;;;;6240427;23;20100;-78
2023/10/03 04:40:23;;;;;;;3.92;3.63;;;;;;;;;;6216976;23;20016;-78
2023/10/03 04:42:49;;;;;;;4.53;3.97;;;;;;;;;;6243172;23;20109;-76
2023/10/03 04:45:15;;;;;;;4.38;3.95;;;;;;;;;;6216430;23;20114;-78
2023/10/03 04:47:41;;;;;;;4.43;3.75;;;;;;;;;;6215436;23;20601;-80
2023/10/03 04:50:08;;;;;;;3.72;3.33;;;;;;;;;;6244285;22;20388;-78
2023/10/03 04:52:34;;;;;;;3.35;3.13;;;;;;;;;;6217676;23;20012;-78
2023/10/03 04:55:00;;;;;;;4.05;3.63;;;;;;;;;;6241663;23;20020;-75
2023/10/03 04:57:27;;;;;;;4.47;3.30;;;;;;;;;;6243727;23;20111;-76
2023/10/03 04:59:56;;;;;;;5.20;3.70;;;;;;;;;;6191615;23;20453;-75
2023/10/03 05:02:22;;;;;;;4.32;3.65;;;;;;;;;;6243779;22;20012;-75
2023/10/03 05:04:48;;;;;;;6.35;5.70;;;;;;;;;;6243762;23;20016;-75
2023/10/03 05:07:16;;;;;;;9.93;7.40;;;;;;;;;;6244338;23;20016;-74
2023/10/03 05:09:43;;;;;;;4.15;3.85;;;;;;;;;;6217103;23;20024;-75
2023/10/03 05:12:08;;;;;;;5.63;3.90;;;;;;;;;;6243678;22;20547;-76
2023/10/03 05:14:37;;;;;;;4.38;3.40;;;;;;;;;;6188847;23;20062;-75
2023/10/03 05:17:03;;;;;;;4.60;3.42;;;;;;;;;;6241014;23;20008;-75
2023/10/03 05:19:29;;;;;;;6.35;3.75;;;;;;;;;;6240672;23;20133;-73
2023/10/03 05:21:56;;;;;;;4.43;4.10;;;;;;;;;;6241575;22;20024;-75
2023/10/03 05:24:23;;;;;;;7.93;3.90;;;;;;;;;;6215492;23;20051;-74
2023/10/03 05:26:49;;;;;;;6.93;3.67;;;;;;;;;;6215029;23;20012;-75
2023/10/03 05:29:16;;;;;;;4.07;3.70;;;;;;;;;;6215069;23;20030;-75
2023/10/03 05:31:42;;;;;;;11.40;8.05;;;;;;;;;;6215067;23;20095;-75
2023/10/03 05:34:09;;;;;;;5.13;4.65;;;;;;;;;;6215061;23;20048;-76
2023/10/03 05:36:35;;;;;;;9.45;3.80;;;;;;;;;;6212670;23;20463;-76
2023/10/03 05:39:03;;;;;;;9.23;4.10;;;;;;;;;;6216120;23;20012;-76
2023/10/03 05:41:29;;;;;;;4.60;4.20;;;;;;;;;;6239637;23;20103;-73
2023/10/03 05:43:55;;;;;;;5.68;3.97;;;;;;;;;;6239522;23;20027;-77
2023/10/03 05:46:21;;;;;;;6.82;4.25;;;;;;;;;;6239551;23;20011;-78
2023/10/03 05:48:47;;;;;;;5.80;4.50;;;;;;;;;;6212916;23;20361;-77
2023/10/03 05:51:12;;;;;;;8.63;4.75;;;;;;;;;;6243085;23;20095;-79
2023/10/03 05:53:41;;;;;;;6.00;4.80;;;;;;;;;;6242482;23;20393;-78
2023/10/03 05:56:10;;;;;;;6.72;4.70;;;;;;;;;;6215542;23;20012;-79
2023/10/03 05:58:37;;;;;;;12.13;4.90;;;;;;;;;;6241442;23;20016;-75
2023/10/03 06:01:04;;;;;;;12.32;4.00;;;;;;;;;;6241793;23;20074;-78
2023/10/03 06:03:30;;;;;;;6.80;4.70;;;;;;;;;;6215145;23;20020;-74
2023/10/03 06:05:56;;;;;;;5.95;3.78;;;;;;;;;;6215413;23;20131;-74
2023/10/03 06:08:22;;;;;;;6.03;4.28;;;;;;;;;;6215104;23;20055;-76
2023/10/03 06:10:49;;;;;;;8.70;4.82;;;;;;;;;;6241782;23;20015;-75
2023/10/03 06:13:15;;;;;;;7.82;4.40;;;;;;;;;;6241612;23;20091;-74
2023/10/03 06:15:41;;;;;;;7.20;4.38;;;;;;;;;;6242248;23;20039;-75
2023/10/03 06:18:08;;;;;;;5.05;4.40;;;;;;;;;;6242087;23;20012;-75
2023/10/03 06:20:34;;;;;;;9.95;5.18;;;;;;;;;;6241867;23;20151;-76
2023/10/03 06:23:02;;;;;;;12.85;4.80;;;;;;;;;;6214481;23;20022;-75
2023/10/03 06:25:29;;;;;;;6.43;4.95;;;;;;;;;;6215187;23;20008;-73
2023/10/03 06:27:55;;;;;;;7.43;5.22;;;;;;;;;;6241545;23;20012;-74
2023/10/03 06:30:20;;;;;;;7.88;4.60;;;;;;;;;;6242378;23;20012;-76
2023/10/03 06:32:47;;;;;;;8.40;4.97;;;;;;;;;;6215667;23;20012;-74
2023/10/03 06:35:12;;;;;;;6.88;4.20;;;;;;;;;;6190824;23;20023;-77
2023/10/03 06:37:39;;;;;;;5.10;4.60;;;;;;;;;;6242748;23;20019;-81
2023/10/03 06:40:07;;;;;;;5.60;3.42;;;;;;;;;;6194081;23;20408;-78
2023/10/03 06:42:34;;;;;;;9.32;4.65;;;;;;;;;;6217384;23;20008;-78
2023/10/03 06:45:00;;;;;;;11.13;4.40;;;;;;;;;;6218431;23;20016;-80
2023/10/03 06:47:27;;;;;;;5.30;3.83;;;;;;;;;;6243367;23;20066;-78
2023/10/03 06:49:53;;;;;;;4.40;4.00;;;;;;;;;;6241566;23;20020;-78
2023/10/03 06:52:19;;;;;;;8.18;4.03;;;;;;;;;;6243009;23;20425;-79
2023/10/03 06:54:45;;;;;;;5.45;3.88;;;;;;;;;;6215540;23;20023;-79
2023/10/03 06:57:11;;;;;;;7.50;4.57;;;;;;;;;;6214944;23;20090;-77
2023/10/03 06:59:37;;;;;;;7.43;4.13;;;;;;;;;;6241846;23;20058;-78
2023/10/03 07:02:04;;;;;;;6.60;3.88;;;;;;;;;;6214515;23;20012;-77
2023/10/03 07:04:30;;;;;;;3.78;3.00;;;;;;;;;;6215112;23;20196;-76
2023/10/03 07:06:56;;;;;;;2.75;2.55;;;;;;;;;;6189198;23;20016;-76
2023/10/03 07:09:22;;;;;;;3.83;2.65;;;;;;;;;;6213897;23;20028;-76
2023/10/03 07:11:48;;;;;;;3.10;2.78;;;;;;;;;;6240600;23;20480;-75
2023/10/03 07:14:15;;;;;;;3.05;2.75;;;;;;;;;;6214353;23;20016;-75
2023/10/03 07:16:42;;;;;;;2.95;2.50;;;;;;;;;;6242017;23;20066;-76
2023/10/03 07:19:09;;;;;;;5.68;2.90;;;;;;;;;;6241375;23;20453;-75
2023/10/03 07:21:36;;;;;;;3.45;2.35;;;;;;;;;;6228982;23;20495;-76
2023/10/03 07:24:02;;;;;;;7.97;2.60;;;;;;;;;;6241181;22;20019;-75
2023/10/03 07:26:28;;;;;;;2.58;2.28;;;;;;;;;;6241378;22;20091;-74
2023/10/03 07:28:58;;;;;;;5.80;2.28;;;;;;;;;;6214764;23;20020;-76
2023/10/03 07:31:25;;;;;;;2.70;2.50;;;;;;;;;;6241644;22;20544;-75
2023/10/03 07:33:52;;;;;;;2.70;2.28;;;;;;;;;;6239929;23;20103;-74
2023/10/03 07:36:18;;;;;;;2.17;2.00;;;;;;;;;;6241615;22;20012;-76
2023/10/03 07:38:45;;;;;;;2.47;2.08;;;;;;;;;;6241623;23;20061;-76
2023/10/03 07:41:16;;;;;;;3.35;2.60;;;;;;;;;;6214260;23;20020;-75
2023/10/03 07:43:48;;;;;;;2.55;2.35;;;;;;;;;;6240506;22;20012;-76
2023/10/03 07:46:21;;;;;;;2.50;2.33;;;;;;;;;;6233976;23;20012;-76
2023/10/03 07:48:49;;;;;;;4.75;2.35;;;;;;;;;;6236612;23;20742;-81
2023/10/03 07:51:17;;;;;;;2.47;2.20;;;;;;;;;;6238510;23;20023;-75
2023/10/03 07:53:43;;;;;;;2.63;2.40;;;;;;;;;;6239248;23;20015;-78
2023/10/03 07:56:16;;;;;;;3.13;2.17;;;;;;;;;;6239315;22;20016;-76
2023/10/03 07:58:42;;;;;;;3.90;2.20;;;;;;;;;;6187895;23;20520;-77
2023/10/03 08:01:08;;;;;;;7.15;2.33;;;;;;;;;;6240951;23;20012;-75
2023/10/03 08:03:34;;;;;;;2.80;2.60;;;;;;;;;;6249042;22;20096;-77
2023/10/03 08:06:00;;;;;;;3.88;2.35;;;;;;;;;;6253957;23;20023;-78
2023/10/03 08:08:27;;;;;;;5.13;2.30;;;;;;;;;;6253604;23;20488;-76
2023/10/03 08:10:53;;;;;;;4.88;1.90;;;;;;;;;;6244187;22;20039;-76
2023/10/03 08:13:19;;;;;;;2.63;2.42;;;;;;;;;;6241991;23;20043;-77
2023/10/03 08:15:45;;;;;;;2.22;2.03;;;;;;;;;;6241932;22;20008;-78
2023/10/03 08:18:17;;;;;;;2.90;2.70;;;;;;;;;;6241102;22;20016;-77
2023/10/03 08:20:44;;;;;;;2.88;1.85;;;;;;;;;;6241237;22;20024;-77
2023/10/03 08:23:10;;;;;;;3.22;2.20;;;;;;;;;;6241362;23;20016;-76
2023/10/03 08:25:36;;;;;;;2.35;2.25;;;;;;;;;;6191779;23;20295;-78
2023/10/03 08:28:09;;;;;;;3.13;2.40;;;;;;;;;;6216886;23;20016;-79
2023/10/03 08:30:35;;;;;;;5.07;2.15;;;;;;;;;;6192590;23;20020;-79
2023/10/03 08:33:05;;;;;;;2.33;2.13;;;;;;;;;;6243365;23;20032;-79
2023/10/03 08:35:49;;;;;;;3.00;2.63;;;;;;;;;;6244056;23;20066;-78
2023/10/03 08:38:15;;;;;;;4.80;2.60;;;;;;;;;;6221091;23;20012;-78
2023/10/03 08:40:52;;;;;;;2.58;2.38;;;;;;;;;;6191530;23;20419;-80
2023/10/03 08:43:25;;;;;;;2.63;2.05;;;;;;;;;;6245183;23;20475;-79
2023/10/03 08:45:55;;;;;;;4.28;2.13;;;;;;;;;;6193624;23;20012;-80
2023/10/03 08:48:26;;;;;;;3.75;2.42;;;;;;;;;;6217401;23;20103;-81
2023/10/03 08:50:53;;;;;;;2.72;2.22;;;;;;;;;;6216758;23;20023;-80
2023/10/03 08:53:26;;;;;;;3.00;2.30;;;;;;;;;;6244141;23;20023;-78
2023/10/03 08:55:57;;;;;;;6.90;3.88;;;;;;;;;;6219382;23;20050;-79
2023/10/03 08:58:27;;;;;;;3.17;2.38;;;;;;;;;;6242974;23;20023;-77
2023/10/03 09:00:59;;;;;;;2.45;1.98;;;;;;;;;;6243085;23;20024;-79
2023/10/03 09:03:29;;;;;;;8.32;2.15;;;;;;;;;;6243097;23;20012;-79
2023/10/03 09:05:58;;;;;;;2.58;2.28;;;;;;;;;;6217199;23;20012;-78
2023/10/03 09:08:25;;;;;;;2.78;2.33;;;;;;;;;;6217053;23;20027;-76
2023/10/03 09:10:52;;;;;;;2.63;2.40;;;;;;;;;;6217366;23;20378;-77
2023/10/03 09:13:28;;;;;;;2.70;2.50;;;;;;;;;;6243314;23;20059;-78
2023/10/03 09:15:59;;;;;;;3.95;2.40;;;;;;;;;;6216498;23;20008;-77
2023/10/03 09:18:29;;;;;;;2.33;2.13;;;;;;;;;;6216555;23;20008;-78
2023/10/03 09:21:04;;;;;;;2.77;2.53;;;;;;;;;;6222232;23;20028;-80
2023/10/03 09:23:39;;;;;;;2.30;2.10;;;;;;;;;;6241783;23;20034;-77
2023/10/03 09:26:06;;;;;;;4.93;2.47;;;;;;;;;;6243086;22;20452;-79
2023/10/03 09:28:35;;;;;;;3.97;2.40;;;;;;;;;;6243874;22;20404;-79
2023/10/03 09:31:02;;;;;;;3.10;2.60;;;;;;;;;;6241940;23;20043;-79
2023/10/03 09:33:28;;;;;;;4.20;2.45;;;;;;;;;;6242118;23;20020;-79
2023/10/03 09:36:00;;;;;;;5.88;2.60;;;;;;;;;;6241512;23;20016;-80
2023/10/03 09:38:38;;;;;;;2.80;2.60;;;;;;;;;;6243146;23;20008;-80
2023/10/03 09:41:04;;;;;;;5.90;2.22;;;;;;;;;;6242041;23;20106;-80
2023/10/03 09:43:30;;;;;;;2.97;2.10;;;;;;;;;;6216966;23;20443;-78
2023/10/03 09:45:57;;;;;;;2.17;1.98;;;;;;;;;;6243264;23;20483;-80
2023/10/03 09:48:24;;;;;;;2.95;2.25;;;;;;;;;;6241802;23;20024;-79
2023/10/03 09:50:54;;;;;;;3.97;2.47;;;;;;;;;;6243799;23;20031;-78
2023/10/03 09:53:27;;;;;;;2.53;2.15;;;;;;;;;;6241712;23;20103;-79
2023/10/03 09:55:54;;;;;;;4.00;2.67;;;;;;;;;;6242860;23;20019;-79
2023/10/03 09:58:24;;;;;;;9.65;2.80;;;;;;;;;;6242589;23;20016;-80
2023/10/03 10:00:57;;;;;;;2.75;2.38;;;;;;;;;;6245299;23;20018;-79
2023/10/03 10:03:33;;;;;;;2.28;1.92;;;;;;;;;;6241722;23;20015;-79
2023/10/03 10:06:14;;;;;;;2.28;2.08;;;;;;;;;;6243570;23;20369;-80
2023/10/03 10:08:46;;;;;;;3.25;2.80;;;;;;;;;;6245934;23;20051;-79
2023/10/03 10:11:12;;;;;;;3.80;2.53;;;;;;;;;;6244467;22;20007;-78
2023/10/03 10:13:44;;;;;;;3.67;2.30;;;;;;;;;;6242796;23;20012;-79
2023/10/03 10:18:43;;;;;;;3.53;2.63;;;;;;;;;;6243702;22;20015;-79
2023/10/03 10:21:20;;;;;;;3.47;2.97;;;;;;;;;;6242339;23;20023;-79
2023/10/03 10:24:06;;;;;;;4.05;2.70;;;;;;;;;;6242370;23;20016;-79
2023/10/03 10:26:34;;;;;;;2.83;2.55;;;;;;;;;;6241866;23;20070;-79
2023/10/03 10:29:08;;;;;;;3.28;2.47;;;;;;;;;;6241985;23;20066;-80
2023/10/03 10:31:42;;;;;;;4.55;2.38;;;;;;;;;;6242153;23;20035;-79
2023/10/03 10:34:20;;;;;;;4.18;2.40;;;;;;;;;;6244510;22;20115;-80
2023/10/03 10:37:02;;;;;;;2.42;2.22;;;;;;;;;;6246404;23;20519;-80
2023/10/03 10:39:47;;;;;;;2.70;2.17;;;;;;;;;;6244385;23;20015;-79
2023/10/03 10:42:14;;;;;;;3.22;2.60;;;;;;;;;;6243892;22;20008;-80
2023/10/03 10:44:59;;;;;;;2.97;2.30;;;;;;;;;;6244888;23;20342;-80
2023/10/03 10:47:27;;;;;;;4.93;2.60;;;;;;;;;;6244257;23;20119;-80
2023/10/03 10:49:56;;;;;;;4.45;2.70;;;;;;;;;;6220350;23;20415;-81
2023/10/03 10:52:22;;;;;;;3.28;2.97;;;;;;;;;;6245600;23;20008;-79
2023/10/03 10:54:49;;;;;;;8.77;2.88;;;;;;;;;;6219388;23;20023;-80
2023/10/03 10:57:15;;;;;;;3.75;3.05;;;;;;;;;;6243386;23;20012;-79
2023/10/03 10:59:43;;;;;;;3.10;2.80;;;;;;;;;;6244388;23;20104;-79
2023/10/03 11:02:16;;;;;;;3.88;2.63;;;;;;;;;;6242199;23;20012;-79
2023/10/03 11:04:43;;;;;;;4.75;2.92;;;;;;;;;;6242508;23;20016;-79
2023/10/03 11:07:09;;;;;;;5.40;3.10;;;;;;;;;;6243711;23;20016;-78
2023/10/03 11:09:37;;;;;;;5.28;3.10;;;;;;;;;;6246067;23;20043;-79
2023/10/03 11:12:06;;;;;;;6.45;3.00;;;;;;;;;;6246608;22;20394;-79
2023/10/03 11:14:33;;;;;;;3.50;3.15;;;;;;;;;;6246232;23;20408;-80
2023/10/03 11:17:01;;;;;;;7.38;3.17;;;;;;;;;;6248625;22;20035;-80
2023/10/03 11:19:30;;;;;;;5.82;3.55;;;;;;;;;;6246925;23;20091;-80
2023/10/03 11:21:56;;;;;;;5.10;2.97;;;;;;;;;;6245556;22;20103;-80
2023/10/03 11:24:22;;;;;;;5.10;3.35;;;;;;;;;;6245042;23;20012;-79
2023/10/03 11:26:49;;;;;;;6.72;3.45;;;;;;;;;;6244623;23;20012;-79
2023/10/03 11:29:17;;;;;;;4.70;3.65;;;;;;;;;;6217476;23;20020;-79
2023/10/03 11:31:45;;;;;;;4.97;2.75;;;;;;;;;;6201311;23;20008;-80
2023/10/03 11:34:11;;;;;;;5.45;3.00;;;;;;;;;;6222577;23;20015;-78
2023/10/03 11:36:44;;;;;;;5.25;3.50;;;;;;;;;;6194933;23;20016;-79
2023/10/03 11:39:18;;;;;;;7.78;3.25;;;;;;;;;;6219126;23;20012;-78
2023/10/03 11:41:44;;;;;;;5.75;3.25;;;;;;;;;;6171592;23;20016;-79
2023/10/03 11:44:17;;;;;;;4.90;3.35;;;;;;;;;;6246639;23;20015;-77
2023/10/03 11:46:44;;;;;;;5.45;2.83;;;;;;;;;;6196577;23;20520;-80
2023/10/03 11:49:10;;;;;;;5.97;3.15;;;;;;;;;;6248977;23;20055;-79
2023/10/03 11:51:42;;;;;;;6.55;4.30;;;;;;;;;;6248249;23;20019;-79
2023/10/03 11:54:33;;;;;;;4.22;3.05;;;;;;;;;;6249255;23;20074;-78
2023/10/03 11:56:59;;;;;;;4.35;3.17;;;;;;;;;;6198234;23;20012;-79
2023/10/03 11:59:25;;;;;;;4.47;3.10;;;;;;;;;;6222526;23;20016;-80
2023/10/03 12:01:56;;;;;;;7.53;3.58;;;;;;;;;;6171061;23;20008;-78
2023/10/03 12:04:23;;;;;;;5.88;2.85;;;;;;;;;;6223827;23;20044;-79
2023/10/03 12:06:49;;;;;;;5.15;2.40;;;;;;;;;;6250013;23;20012;-80
2023/10/03 12:09:17;;;;;;;4.70;3.20;;;;;;;;;;6221497;23;20020;-79
2023/10/03 12:11:43;;;;;;;5.82;3.53;;;;;;;;;;6249179;23;20012;-79
2023/10/03 12:14:12;;;;;;;5.65;3.30;;;;;;;;;;6221757;23;20020;-80
2023/10/03 12:16:38;;;;;;;5.00;2.92;;;;;;;;;;6223925;23;20012;-81
2023/10/03 12:19:05;;;;;;;3.38;2.83;;;;;;;;;;6221749;23;20016;-79
2023/10/03 12:21:31;;;;;;;4.95;3.63;;;;;;;;;;6247808;23;20020;-77
2023/10/03 12:23:58;;;;;;;5.18;3.30;;;;;;;;;;6251477;23;20012;-79
2023/10/03 12:26:24;;;;;;;3.88;2.50;;;;;;;;;;6201766;23;20023;-79
2023/10/03 12:28:52;;;;;;;3.88;3.00;;;;;;;;;;6224956;23;20132;-80
2023/10/03 12:31:25;;;;;;;3.63;2.42;;;;;;;;;;6221636;23;20008;-79
2023/10/03 12:33:51;;;;;;;2.63;2.22;;;;;;;;;;6222550;23;20116;-80
2023/10/03 12:36:18;;;;;;;6.30;3.10;;;;;;;;;;6196950;23;20035;-80
2023/10/03 12:38:44;;;;;;;5.53;2.90;;;;;;;;;;6220788;23;20012;-80
2023/10/03 12:41:10;;;;;;;3.85;2.97;;;;;;;;;;6247464;23;20058;-79
2023/10/03 12:43:46;;;;;;;4.30;2.95;;;;;;;;;;6247095;23;20039;-79
2023/10/03 12:46:13;;;;;;;4.45;2.90;;;;;;;;;;6247785;23;20012;-78
2023/10/03 12:48:39;;;;;;;4.72;2.80;;;;;;;;;;6248380;23;20119;-79
2023/10/03 12:51:05;;;;;;;7.68;3.35;;;;;;;;;;6219985;23;20016;-79
2023/10/03 12:53:35;;;;;;;5.22;3.30;;;;;;;;;;6246947;23;20075;-78
2023/10/03 12:56:02;;;;;;;5.60;3.30;;;;;;;;;;6220323;23;20019;-80
2023/10/03 12:58:28;;;;;;;5.30;3.28;;;;;;;;;;6217999;23;20023;-79
2023/10/03 13:00:54;;;;;;;4.90;3.13;;;;;;;;;;6194763;23;20012;-79
2023/10/03 13:03:20;;;;;;;5.07;3.03;;;;;;;;;;6221456;23;20012;-79
2023/10/03 13:05:46;;;;;;;2.60;2.40;;;;;;;;;;6246684;23;20023;-79
2023/10/03 13:08:14;;;;;;;6.03;2.95;;;;;;;;;;6193502;23;20082;-78
2023/10/03 13:10:41;;;;;;;5.78;2.83;;;;;;;;;;6194122;23;20012;-80
2023/10/03 13:13:09;;;;;;;3.67;2.60;;;;;;;;;;6219611;23;20050;-79
2023/10/03 13:15:35;;;;;;;3.95;3.25;;;;;;;;;;6245222;23;20396;-79
2023/10/03 13:18:01;;;;;;;5.70;2.63;;;;;;;;;;6219169;23;20008;-80
2023/10/03 13:20:28;;;;;;;4.20;3.13;;;;;;;;;;6220689;23;20032;-80
2023/10/03 13:22:57;;;;;;;4.10;3.08;;;;;;;;;;6222052;23;20334;-80
2023/10/03 13:25:24;;;;;;;8.40;3.17;;;;;;;;;;6247600;23;20012;-80
2023/10/03 13:27:52;;;;;;;6.60;3.20;;;;;;;;;;6247779;23;20018;-80
2023/10/03 13:30:18;;;;;;;2.83;2.55;;;;;;;;;;6197693;23;20055;-80
2023/10/03 13:32:57;;;;;;;10.93;3.00;;;;;;;;;;6248681;22;20008;-80
2023/10/03 13:35:23;;;;;;;3.22;2.80;;;;;;;;;;6249126;22;20098;-80
2023/10/03 13:37:49;;;;;;;6.63;3.45;;;;;;;;;;6247480;23;20107;-80
2023/10/03 13:40:17;;;;;;;8.98;3.38;;;;;;;;;;6248803;22;20012;-80
2023/10/03 13:42:44;;;;;;;4.28;3.70;;;;;;;;;;6247690;23;20015;-80
2023/10/03 13:45:13;;;;;;;11.48;4.32;;;;;;;;;;6247191;23;20042;-77
2023/10/03 13:47:39;;;;;;;5.82;3.08;;;;;;;;;;6245497;23;20027;-77
2023/10/03 13:50:08;;;;;;;4.13;2.30;;;;;;;;;;6245295;22;20020;-78
2023/10/03 13:52:37;;;;;;;7.78;3.20;;;;;;;;;;6247248;23;20032;-78
2023/10/03 13:55:14;;;;;;;11.93;3.88;;;;;;;;;;6248763;23;20012;-78
2023/10/03 13:57:42;;;;;;;4.32;3.05;;;;;;;;;;6251986;23;20012;-77
2023/10/03 14:00:12;;;;;;;8.02;3.42;;;;;;;;;;6250388;23;20127;-77
2023/10/03 14:02:39;;;;;;;9.20;4.20;;;;;;;;;;6245065;23;20016;-77
2023/10/03 14:05:05;;;;;;;5.57;3.63;;;;;;;;;;6219648;23;20099;-78
2023/10/03 14:07:31;;;;;;;11.40;3.70;;;;;;;;;;6218930;23;20011;-77
2023/10/03 14:09:59;;;;;;;11.95;3.40;;;;;;;;;;6246879;22;20031;-77
2023/10/03 14:12:25;;;;;;;6.57;3.55;;;;;;;;;;6219777;23;20031;-77
2023/10/03 14:14:52;;;;;;;6.60;3.72;;;;;;;;;;6244037;23;20012;-77
2023/10/03 14:17:18;;;;;;;7.90;4.10;;;;;;;;;;6218256;23;20014;-78
2023/10/03 14:19:44;;;;;;;9.73;3.58;;;;;;;;;;6193559;23;20049;-78
2023/10/03 14:22:11;;;;;;;8.38;3.90;;;;;;;;;;6244433;23;20074;-76
2023/10/03 14:24:38;;;;;;;11.65;4.03;;;;;;;;;;6244442;23;20016;-77
2023/10/03 14:27:07;;;;;;;9.32;3.28;;;;;;;;;;6245020;23;20014;-78
2023/10/03 14:29:33;;;;;;;15.60;3.92;;;;;;;;;;6244968;23;20027;-77
2023/10/03 14:32:00;;;;;;;13.98;3.95;;;;;;;;;;6246376;23;20073;-78
2023/10/03 14:34:26;;;;;;;5.57;3.50;;;;;;;;;;6244627;23;20008;-77
2023/10/03 14:36:52;;;;;;;11.15;3.58;;;;;;;;;;6245285;23;20019;-75
2023/10/03 14:39:29;;;;;;;9.43;3.03;;;;;;;;;;6246057;22;20034;-77
2023/10/03 14:41:56;;;;;;;3.90;3.50;;;;;;;;;;6245608;22;20457;-77
2023/10/03 14:44:22;;;;;;;9.20;4.05;;;;;;;;;;6218665;23;20012;-77
2023/10/03 14:46:48;;;;;;;6.88;4.38;;;;;;;;;;6245939;22;20047;-77
2023/10/03 14:49:15;;;;;;;10.68;4.43;;;;;;;;;;6243606;23;20024;-77
2023/10/03 14:51:41;;;;;;;8.98;4.35;;;;;;;;;;6244345;23;20047;-78
2023/10/03 14:54:07;;;;;;;9.60;4.13;;;;;;;;;;6245562;23;20023;-77
2023/10/03 14:56:33;;;;;;;10.63;4.85;;;;;;;;;;6245298;23;20062;-77